Arthur Brusco — WDC3449 — position and weather

sailwx.info

Track history (hours):
 
Tides and Currents Weather Stations Pressure Air Temp Water Temp Dewpoint Dewpoint Depression Visibility Wind Speed Wind Dir Waves Ship Positions

Arthur Brusco

Owner: Brusco Tug & Barge, Inc, Longview, WA. More information available from US FCC via Universal Licensing System and Coast Guard Vessel Documentation Center.

Last reported at 2014-Nov-29 04:16 UTC. Time now 2014-Nov-29 05:10 UTC.
Position N 37°31' W 122°13'.

Length 35 m; draft 4.2 m.

Type: Towing. MMSI: 367008020.

Date/timePositionNaut miles runAvg speedWind from/ knotsBaromVisibWave heightAir tempDewpointWater temp
2014-Nov-29 04:16N 37°31' W 122°13'0 0.0
2014-Nov-29 03:20N 37°31' W 122°13'0 0.0
2014-Nov-29 02:21N 37°31' W 122°13'0 0.0
2014-Nov-29 01:33N 37°31' W 122°13'0 0.0
2014-Nov-29 00:33N 37°31' W 122°13'0 0.0
2014-Nov-28 23:33N 37°31' W 122°13'0 0.0
2014-Nov-28 22:33N 37°31' W 122°13'0 0.0
2014-Nov-28 21:32N 37°31' W 122°13'0 0.0
2014-Nov-28 20:32N 37°31' W 122°13'0 0.0
2014-Nov-28 19:33N 37°31' W 122°13'0 0.0
2014-Nov-28 18:17N 37°31' W 122°13'0 0.0
2014-Nov-28 13:33N 37°31' W 122°13'4 4.2
2014-Nov-28 12:33N 37°35' W 122°15'10 9.8
2014-Nov-28 11:33N 37°43' W 122°21'9 9.3
2014-Nov-28 10:33N 37°52' W 122°25'7 7.4
2014-Nov-28 09:33N 37°59' W 122°26'3 3.3
2014-Nov-28 08:34N 37°56' W 122°27'8 7.8
2014-Nov-28 07:34N 37°49' W 122°23'8 7.8
2014-Nov-28 06:34N 37°41' W 122°20'9 9.0
2014-Nov-28 05:33N 37°34' W 122°13'4 3.6
2014-Nov-28 04:33N 37°31' W 122°13'4 3.6
2014-Nov-28 03:33N 37°34' W 122°13'8 7.9
2014-Nov-28 02:34N 37°40' W 122°20'8 7.9
2014-Nov-28 01:34N 37°47' W 122°23'9 9.0
2014-Nov-28 00:33N 37°56' W 122°27'2 2.2
2014-Nov-27 23:34N 37°58' W 122°26'8 7.8
2014-Nov-27 22:34N 37°50' W 122°24'6 6.2
2014-Nov-27 21:33N 37°45' W 122°21'6 5.9
2014-Nov-27 20:34N 37°39' W 122°19'6 6.1
2014-Nov-27 19:34N 37°34' W 122°14'3 3.3
2014-Nov-27 18:31N 37°31' W 122°12'1 0.7
2014-Nov-27 17:31N 37°31' W 122°13'0 0.0
2014-Nov-27 16:33N 37°31' W 122°13'2 2.0
2014-Nov-27 15:32N 37°32' W 122°12'1 0.9
2014-Nov-27 14:33N 37°33' W 122°12'0 0.0
2014-Nov-27 13:33N 37°33' W 122°12'7 6.8
2014-Nov-27 12:33N 37°38' W 122°18'9 9.3
2014-Nov-27 11:34N 37°46' W 122°22'9 8.9
2014-Nov-27 10:34N 37°55' W 122°26'4 4.5
2014-Nov-27 09:34N 37°59' W 122°26'1 1.5
2014-Nov-27 08:33N 37°58' W 122°27'9 8.8
2014-Nov-27 07:34N 37°49' W 122°24'7 7.4
2014-Nov-27 06:33N 37°42' W 122°21'9 8.8
2014-Nov-27 05:33N 37°35' W 122°14'4 4.1
2014-Nov-27 04:33N 37°31' W 122°12'6 6.0
2014-Nov-27 03:33N 37°36' W 122°16'8 7.8
2014-Nov-27 02:33N 37°43' W 122°21'8 7.7
2014-Nov-27 01:34N 37°50' W 122°24'1010.1
2014-Nov-27 00:34N 38°00' W 122°25'6 5.9
2014-Nov-26 23:33N 37°55' W 122°26'7 7.2
2014-Nov-26 22:34N 37°48' W 122°23'7 6.8
2014-Nov-26 21:34N 37°42' W 122°20'6 6.0
2014-Nov-26 20:33N 37°36' W 122°17'5 5.4
2014-Nov-26 19:33N 37°33' W 122°12'1 0.6
2014-Nov-26 18:33N 37°33' W 122°12'0 0.1
2014-Nov-26 17:33N 37°33' W 122°12'0 0.1
2014-Nov-26 16:33N 37°33' W 122°12'5 5.5
2014-Nov-26 15:33N 37°37' W 122°17'9 9.4
2014-Nov-26 14:34N 37°45' W 122°22'10 9.8
2014-Nov-26 13:34N 37°54' W 122°26'4 3.5
2014-Nov-26 12:33N 37°58' W 122°27'9 9.2
2014-Nov-26 11:34N 37°49' W 122°24'9 8.5
2014-Nov-26 10:33N 37°41' W 122°20'8 7.6
2014-Nov-26 09:33N 37°35' W 122°15'4 3.9
2014-Nov-26 08:33N 37°31' W 122°12'7 6.7
2014-Nov-26 07:33N 37°37' W 122°17'1111.3
2014-Nov-26 06:34N 37°47' W 122°23'1110.8
2014-Nov-26 05:34N 37°58' W 122°27'1 0.9
2014-Nov-26 04:34N 37°58' W 122°26'5 5.1
2014-Nov-26 03:34N 37°53' W 122°25'7 7.3
2014-Nov-26 02:34N 37°46' W 122°22'8 8.4
2014-Nov-26 01:33N 37°38' W 122°19'8 8.2
2014-Nov-26 00:33N 37°32' W 122°12'1 1.1
2014-Nov-25 23:33N 37°33' W 122°12'0 0.1
2014-Nov-25 22:33N 37°33' W 122°12'0 0.0
2014-Nov-25 21:33N 37°33' W 122°12'3 2.6
2014-Nov-25 20:33N 37°31' W 122°13'0 0.0
2014-Nov-25 19:33N 37°31' W 122°13'0 0.0
2014-Nov-25 18:33N 37°31' W 122°13'0 0.0
2014-Nov-25 17:33N 37°31' W 122°13'0 0.0
2014-Nov-25 16:33N 37°31' W 122°13'3 3.1
2014-Nov-25 15:33N 37°34' W 122°12'10 9.8
2014-Nov-25 14:33N 37°41' W 122°20'10 9.9
2014-Nov-25 13:33N 37°51' W 122°24'10 9.7
2014-Nov-25 12:33N 38°00' W 122°25'8 8.1
2014-Nov-25 11:33N 37°52' W 122°25'9 9.2
2014-Nov-25 10:33N 37°44' W 122°21'8 8.1
2014-Nov-25 09:33N 37°36' W 122°17'6 5.8
2014-Nov-25 08:30N 37°31' W 122°12'4 4.4
2014-Nov-25 07:33N 37°35' W 122°15'1111.1
2014-Nov-25 06:34N 37°45' W 122°21'1110.8
2014-Nov-25 05:33N 37°55' W 122°25'4 4.3
2014-Nov-25 04:34N 37°59' W 122°25'6 5.5
2014-Nov-25 03:33N 37°54' W 122°25'7 7.2
2014-Nov-25 02:33N 37°47' W 122°23'8 8.4
2014-Nov-25 01:34N 37°39' W 122°19'9 8.5
2014-Nov-25 00:33N 37°33' W 122°12'1 0.7
2014-Nov-24 23:33N 37°33' W 122°12'3 2.8
2014-Nov-24 22:33N 37°31' W 122°13'0 0.0
2014-Nov-24 21:15N 37°31' W 122°13'0 0.0
2014-Nov-24 20:33N 37°31' W 122°13'0 0.0
2014-Nov-24 19:33N 37°31' W 122°13'0 0.0
2014-Nov-24 18:33N 37°31' W 122°13'0 0.0
2014-Nov-24 17:33N 37°31' W 122°13'2 1.1
2014-Nov-24 15:33N 37°33' W 122°12'1 0.6
2014-Nov-24 14:33N 37°33' W 122°12'1 0.6
2014-Nov-24 13:33N 37°34' W 122°12'10 9.6
2014-Nov-24 12:33N 37°41' W 122°20'10 9.6
2014-Nov-24 11:33N 37°50' W 122°24'10 9.9
2014-Nov-24 10:33N 37°60' W 122°25'7 6.8
2014-Nov-24 09:33N 37°53' W 122°25'9 9.1
2014-Nov-24 08:33N 37°44' W 122°21'8 8.2
2014-Nov-24 07:33N 37°37' W 122°17'7 6.9
2014-Nov-24 06:33N 37°32' W 122°12'1 1.2
2014-Nov-24 05:32N 37°31' W 122°13'3 3.0
2014-Nov-24 04:33N 37°33' W 122°12'9 9.3
2014-Nov-24 03:34N 37°41' W 122°20'9 9.2
2014-Nov-24 02:33N 37°49' W 122°24'5 5.4
2014-Nov-24 01:34N 37°44' W 122°21'8 8.4
2014-Nov-24 00:33N 37°37' W 122°17'6 6.5
2014-Nov-23 23:33N 37°31' W 122°12'2 2.2
2014-Nov-23 22:33N 37°33' W 122°12'0 0.1
2014-Nov-23 21:33N 37°33' W 122°11'0 0.1
2014-Nov-23 20:33N 37°33' W 122°11'0 0.0
2014-Nov-23 19:33N 37°33' W 122°11'0 0.0
2014-Nov-23 18:16N 37°33' W 122°11'5 7.4
2014-Nov-23 17:33N 37°36' W 122°17'1212.5
2014-Nov-23 16:33N 37°48' W 122°23'1110.9
2014-Nov-23 15:33N 37°59' W 122°26'4 3.8
2014-Nov-23 14:33N 37°55' W 122°27'9 8.5
2014-Nov-23 13:33N 37°47' W 122°23'10 9.7
2014-Nov-23 12:33N 37°38' W 122°18'8 7.9
2014-Nov-23 11:31N 37°31' W 122°12'4 3.9
2014-Nov-23 10:33N 37°35' W 122°14'9 9.1
2014-Nov-23 09:33N 37°42' W 122°21'8 8.1
2014-Nov-23 08:34N 37°49' W 122°25'6 6.0
2014-Nov-23 07:33N 37°44' W 122°21'6 5.9
2014-Nov-23 06:34N 37°39' W 122°19'6 5.4
2014-Nov-23 05:30N 37°34' W 122°14'4 3.3
2014-Nov-23 04:26N 37°31' W 122°12'1 0.3
2014-Nov-23 02:19N 37°31' W 122°13'0 0.0
2014-Nov-23 00:23N 37°31' W 122°13'0 0.0
2014-Nov-22 23:33N 37°31' W 122°13'0 0.0
2014-Nov-22 22:25N 37°31' W 122°13'0 0.0
2014-Nov-22 20:29N 37°31' W 122°13'1 0.6
2014-Nov-22 19:33N 37°31' W 122°12'8 8.5
2014-Nov-22 18:33N 37°38' W 122°18'1110.8
2014-Nov-22 17:33N 37°48' W 122°23'2 1.6
2014-Nov-22 16:33N 37°47' W 122°23'6 5.8
2014-Nov-22 15:33N 37°41' W 122°20'7 6.5
2014-Nov-22 14:33N 37°36' W 122°16'5 4.9
2014-Nov-22 13:33N 37°32' W 122°12'2 1.6
2014-Nov-22 12:25N 37°31' W 122°13'0 0.0
2014-Nov-22 11:12N 37°31' W 122°13'0 0.0
2014-Nov-22 10:33N 37°31' W 122°13'0 0.4
2014-Nov-22 09:33N 37°31' W 122°13'0 0.3
2014-Nov-22 08:07N 37°31' W 122°13'0 0.0
2014-Nov-22 07:33N 37°31' W 122°13'0 0.0
2014-Nov-22 06:33N 37°31' W 122°13'0 0.0
2014-Nov-22 03:16N 37°31' W 122°13'0 0.0
2014-Nov-22 02:33N 37°31' W 122°13'0 0.0
2014-Nov-22 01:24N 37°31' W 122°13'1 1.2
2014-Nov-22 00:32N 37°31' W 122°12'1 0.3
2014-Nov-21 21:23N 37°31' W 122°13'0 0.0
2014-Nov-21 20:33N 37°31' W 122°13'0 0.0
2014-Nov-21 18:09N 37°31' W 122°13'0 0.0
2014-Nov-21 17:33N 37°31' W 122°13'1 0.7
2014-Nov-21 16:33N 37°31' W 122°12'1 0.7
2014-Nov-21 15:33N 37°31' W 122°13'3 2.8
2014-Nov-21 14:33N 37°33' W 122°11'0 0.1
2014-Nov-21 13:33N 37°33' W 122°12'5 4.8
2014-Nov-21 12:33N 37°36' W 122°16'8 8.5
2014-Nov-21 11:34N 37°44' W 122°21'7 6.6
2014-Nov-21 10:33N 37°49' W 122°25'8 7.9
2014-Nov-21 09:33N 37°42' W 122°21'7 7.3
2014-Nov-21 08:33N 37°36' W 122°16'6 5.5
2014-Nov-21 07:33N 37°31' W 122°12'1 0.9
2014-Nov-21 06:32N 37°31' W 122°13'0 0.0
2014-Nov-21 05:33N 37°31' W 122°13'0 0.0
2014-Nov-21 04:27N 37°31' W 122°13'0 0.0
2014-Nov-21 03:05N 37°31' W 122°13'0 0.0
2014-Nov-21 02:33N 37°31' W 122°13'0 0.0
2014-Nov-21 01:29N 37°31' W 122°13'0 0.0
2014-Nov-21 00:31N 37°31' W 122°13'0 0.0
2014-Nov-20 23:14N 37°31' W 122°13'3 4.2
2014-Nov-20 22:33N 37°33' W 122°12'3 2.7
2014-Nov-20 21:31N 37°31' W 122°13'0 0.0
2014-Nov-20 20:33N 37°31' W 122°13'0 0.0
2014-Nov-20 19:31N 37°31' W 122°13'0 0.0
2014-Nov-20 18:29N 37°31' W 122°13'0 0.0
2014-Nov-20 17:26N 37°31' W 122°13'0 0.0
2014-Nov-20 16:33N 37°31' W 122°13'0 0.0
2014-Nov-20 15:33N 37°31' W 122°13'0 0.0
2014-Nov-20 14:33N 37°31' W 122°13'3 2.8
2014-Nov-20 13:33N 37°33' W 122°11'7 7.5
2014-Nov-20 12:33N 37°38' W 122°18'9 9.0
2014-Nov-20 11:33N 37°47' W 122°22'1 1.1
2014-Nov-20 10:34N 37°48' W 122°23'8 7.7
2014-Nov-20 09:33N 37°40' W 122°20'7 7.0
2014-Nov-20 08:33N 37°35' W 122°14'4 3.9
2014-Nov-20 07:32N 37°31' W 122°12'0 0.5
2014-Nov-20 06:33N 37°31' W 122°13'0 0.0
2014-Nov-20 05:33N 37°31' W 122°13'0 0.0
2014-Nov-20 04:30N 37°31' W 122°13'2 1.8
2014-Nov-20 03:33N 37°32' W 122°12'8 7.8
2014-Nov-20 02:33N 37°38' W 122°18'1211.5
2014-Nov-20 01:33N 37°48' W 122°24'4 4.0
2014-Nov-20 00:33N 37°45' W 122°22'9 9.3
2014-Nov-19 23:33N 37°36' W 122°17'5 5.1
2014-Nov-19 22:33N 37°33' W 122°12'3 2.8
2014-Nov-19 21:32N 37°31' W 122°13'0 0.0
2014-Nov-19 20:32N 37°31' W 122°13'0 0.2
2014-Nov-19 19:33N 37°30' W 122°13'0 0.0
2014-Nov-19 18:33N 37°30' W 122°13'0 0.0
2014-Nov-19 17:33N 37°30' W 122°13'0 0.0
2014-Nov-19 16:33N 37°30' W 122°13'3 3.5
2014-Nov-19 15:33N 37°34' W 122°13'1111.0
2014-Nov-19 14:33N 37°43' W 122°21'7 6.6
2014-Nov-19 13:33N 37°49' W 122°24'7 6.8
2014-Nov-19 12:33N 37°43' W 122°21'8 7.9
2014-Nov-19 11:33N 37°36' W 122°16'6 5.5
2014-Nov-19 10:33N 37°31' W 122°12'0 0.2
2014-Nov-19 08:33N 37°31' W 122°13'0 0.0
2014-Nov-19 07:33N 37°31' W 122°13'0 0.0
2014-Nov-19 06:33N 37°31' W 122°13'3 2.6
2014-Nov-19 05:33N 37°33' W 122°12'1010.0
2014-Nov-19 04:33N 37°41' W 122°20'  
Track history (hours):
 
Tides and Currents Weather Stations Pressure Air Temp Water Temp Dewpoint Dewpoint Depression Visibility Wind Speed Wind Dir Waves Ship Positions

Arthur Brusco

Owner: Brusco Tug & Barge, Inc, Longview, WA. More information available from US FCC via Universal Licensing System and Coast Guard Vessel Documentation Center.

Last reported at 2014-Nov-29 04:16 UTC. Time now 2014-Nov-29 05:10 UTC.
Position N 37°31' W 122°13'.

Length 35 m; draft 4.2 m.

Type: Towing. MMSI: 367008020.

Date/timePositionNaut miles runAvg speedWind from/ knotsBaromVisibWave heightAir tempDewpointWater temp
2014-Nov-29 04:16N 37°31' W 122°13'0 0.0
2014-Nov-29 03:20N 37°31' W 122°13'0 0.0
2014-Nov-29 02:21N 37°31' W 122°13'0 0.0
2014-Nov-29 01:33N 37°31' W 122°13'0 0.0
2014-Nov-29 00:33N 37°31' W 122°13'0 0.0
2014-Nov-28 23:33N 37°31' W 122°13'0 0.0
2014-Nov-28 22:33N 37°31' W 122°13'0 0.0
2014-Nov-28 21:32N 37°31' W 122°13'0 0.0
2014-Nov-28 20:32N 37°31' W 122°13'0 0.0
2014-Nov-28 19:33N 37°31' W 122°13'0 0.0
2014-Nov-28 18:17N 37°31' W 122°13'0 0.0
2014-Nov-28 13:33N 37°31' W 122°13'4 4.2
2014-Nov-28 12:33N 37°35' W 122°15'10 9.8
2014-Nov-28 11:33N 37°43' W 122°21'9 9.3
2014-Nov-28 10:33N 37°52' W 122°25'7 7.4
2014-Nov-28 09:33N 37°59' W 122°26'3 3.3
2014-Nov-28 08:34N 37°56' W 122°27'8 7.8
2014-Nov-28 07:34N 37°49' W 122°23'8 7.8
2014-Nov-28 06:34N 37°41' W 122°20'9 9.0
2014-Nov-28 05:33N 37°34' W 122°13'4 3.6
2014-Nov-28 04:33N 37°31' W 122°13'4 3.6
2014-Nov-28 03:33N 37°34' W 122°13'8 7.9
2014-Nov-28 02:34N 37°40' W 122°20'8 7.9
2014-Nov-28 01:34N 37°47' W 122°23'9 9.0
2014-Nov-28 00:33N 37°56' W 122°27'2 2.2
2014-Nov-27 23:34N 37°58' W 122°26'8 7.8
2014-Nov-27 22:34N 37°50' W 122°24'6 6.2
2014-Nov-27 21:33N 37°45' W 122°21'6 5.9
2014-Nov-27 20:34N 37°39' W 122°19'6 6.1
2014-Nov-27 19:34N 37°34' W 122°14'3 3.3
2014-Nov-27 18:31N 37°31' W 122°12'1 0.7
2014-Nov-27 17:31N 37°31' W 122°13'0 0.0
2014-Nov-27 16:33N 37°31' W 122°13'2 2.0
2014-Nov-27 15:32N 37°32' W 122°12'1 0.9
2014-Nov-27 14:33N 37°33' W 122°12'0 0.0
2014-Nov-27 13:33N 37°33' W 122°12'7 6.8
2014-Nov-27 12:33N 37°38' W 122°18'9 9.3
2014-Nov-27 11:34N 37°46' W 122°22'9 8.9
2014-Nov-27 10:34N 37°55' W 122°26'4 4.5
2014-Nov-27 09:34N 37°59' W 122°26'1 1.5
2014-Nov-27 08:33N 37°58' W 122°27'9 8.8
2014-Nov-27 07:34N 37°49' W 122°24'7 7.4
2014-Nov-27 06:33N 37°42' W 122°21'9 8.8
2014-Nov-27 05:33N 37°35' W 122°14'4 4.1
2014-Nov-27 04:33N 37°31' W 122°12'6 6.0
2014-Nov-27 03:33N 37°36' W 122°16'8 7.8
2014-Nov-27 02:33N 37°43' W 122°21'8 7.7
2014-Nov-27 01:34N 37°50' W 122°24'1010.1
2014-Nov-27 00:34N 38°00' W 122°25'6 5.9
2014-Nov-26 23:33N 37°55' W 122°26'7 7.2
2014-Nov-26 22:34N 37°48' W 122°23'7 6.8
2014-Nov-26 21:34N 37°42' W 122°20'6 6.0
2014-Nov-26 20:33N 37°36' W 122°17'5 5.4
2014-Nov-26 19:33N 37°33' W 122°12'1 0.6
2014-Nov-26 18:33N 37°33' W 122°12'0 0.1
2014-Nov-26 17:33N 37°33' W 122°12'0 0.1
2014-Nov-26 16:33N 37°33' W 122°12'5 5.5
2014-Nov-26 15:33N 37°37' W 122°17'9 9.4
2014-Nov-26 14:34N 37°45' W 122°22'10 9.8
2014-Nov-26 13:34N 37°54' W 122°26'4 3.5
2014-Nov-26 12:33N 37°58' W 122°27'9 9.2
2014-Nov-26 11:34N 37°49' W 122°24'9 8.5
2014-Nov-26 10:33N 37°41' W 122°20'8 7.6
2014-Nov-26 09:33N 37°35' W 122°15'4 3.9
2014-Nov-26 08:33N 37°31' W 122°12'7 6.7
2014-Nov-26 07:33N 37°37' W 122°17'1111.3
2014-Nov-26 06:34N 37°47' W 122°23'1110.8
2014-Nov-26 05:34N 37°58' W 122°27'1 0.9
2014-Nov-26 04:34N 37°58' W 122°26'5 5.1
2014-Nov-26 03:34N 37°53' W 122°25'7 7.3
2014-Nov-26 02:34N 37°46' W 122°22'8 8.4
2014-Nov-26 01:33N 37°38' W 122°19'8 8.2
2014-Nov-26 00:33N 37°32' W 122°12'1 1.1
2014-Nov-25 23:33N 37°33' W 122°12'0 0.1
2014-Nov-25 22:33N 37°33' W 122°12'0 0.0
2014-Nov-25 21:33N 37°33' W 122°12'3 2.6
2014-Nov-25 20:33N 37°31' W 122°13'0 0.0
2014-Nov-25 19:33N 37°31' W 122°13'0 0.0
2014-Nov-25 18:33N 37°31' W 122°13'0 0.0
2014-Nov-25 17:33N 37°31' W 122°13'0 0.0
2014-Nov-25 16:33N 37°31' W 122°13'3 3.1
2014-Nov-25 15:33N 37°34' W 122°12'10 9.8
2014-Nov-25 14:33N 37°41' W 122°20'10 9.9
2014-Nov-25 13:33N 37°51' W 122°24'10 9.7
2014-Nov-25 12:33N 38°00' W 122°25'8 8.1
2014-Nov-25 11:33N 37°52' W 122°25'9 9.2
2014-Nov-25 10:33N 37°44' W 122°21'8 8.1
2014-Nov-25 09:33N 37°36' W 122°17'6 5.8
2014-Nov-25 08:30N 37°31' W 122°12'4 4.4
2014-Nov-25 07:33N 37°35' W 122°15'1111.1
2014-Nov-25 06:34N 37°45' W 122°21'1110.8
2014-Nov-25 05:33N 37°55' W 122°25'4 4.3
2014-Nov-25 04:34N 37°59' W 122°25'6 5.5
2014-Nov-25 03:33N 37°54' W 122°25'7 7.2
2014-Nov-25 02:33N 37°47' W 122°23'8 8.4
2014-Nov-25 01:34N 37°39' W 122°19'9 8.5
2014-Nov-25 00:33N 37°33' W 122°12'1 0.7
2014-Nov-24 23:33N 37°33' W 122°12'3 2.8
2014-Nov-24 22:33N 37°31' W 122°13'0 0.0
2014-Nov-24 21:15N 37°31' W 122°13'0 0.0
2014-Nov-24 20:33N 37°31' W 122°13'0 0.0
2014-Nov-24 19:33N 37°31' W 122°13'0 0.0
2014-Nov-24 18:33N 37°31' W 122°13'0 0.0
2014-Nov-24 17:33N 37°31' W 122°13'2 1.1
2014-Nov-24 15:33N 37°33' W 122°12'1 0.6
2014-Nov-24 14:33N 37°33' W 122°12'1 0.6
2014-Nov-24 13:33N 37°34' W 122°12'10 9.6
2014-Nov-24 12:33N 37°41' W 122°20'10 9.6
2014-Nov-24 11:33N 37°50' W 122°24'10 9.9
2014-Nov-24 10:33N 37°60' W 122°25'7 6.8
2014-Nov-24 09:33N 37°53' W 122°25'9 9.1
2014-Nov-24 08:33N 37°44' W 122°21'8 8.2
2014-Nov-24 07:33N 37°37' W 122°17'7 6.9
2014-Nov-24 06:33N 37°32' W 122°12'1 1.2
2014-Nov-24 05:32N 37°31' W 122°13'3 3.0
2014-Nov-24 04:33N 37°33' W 122°12'9 9.3
2014-Nov-24 03:34N 37°41' W 122°20'9 9.2
2014-Nov-24 02:33N 37°49' W 122°24'5 5.4
2014-Nov-24 01:34N 37°44' W 122°21'8 8.4
2014-Nov-24 00:33N 37°37' W 122°17'6 6.5
2014-Nov-23 23:33N 37°31' W 122°12'2 2.2
2014-Nov-23 22:33N 37°33' W 122°12'0 0.1
2014-Nov-23 21:33N 37°33' W 122°11'0 0.1
2014-Nov-23 20:33N 37°33' W 122°11'0 0.0
2014-Nov-23 19:33N 37°33' W 122°11'0 0.0
2014-Nov-23 18:16N 37°33' W 122°11'5 7.4
2014-Nov-23 17:33N 37°36' W 122°17'1212.5
2014-Nov-23 16:33N 37°48' W 122°23'1110.9
2014-Nov-23 15:33N 37°59' W 122°26'4 3.8
2014-Nov-23 14:33N 37°55' W 122°27'9 8.5
2014-Nov-23 13:33N 37°47' W 122°23'10 9.7
2014-Nov-23 12:33N 37°38' W 122°18'8 7.9
2014-Nov-23 11:31N 37°31' W 122°12'4 3.9
2014-Nov-23 10:33N 37°35' W 122°14'9 9.1
2014-Nov-23 09:33N 37°42' W 122°21'8 8.1
2014-Nov-23 08:34N 37°49' W 122°25'6 6.0
2014-Nov-23 07:33N 37°44' W 122°21'6 5.9
2014-Nov-23 06:34N 37°39' W 122°19'6 5.4
2014-Nov-23 05:30N 37°34' W 122°14'4 3.3
2014-Nov-23 04:26N 37°31' W 122°12'1 0.3
2014-Nov-23 02:19N 37°31' W 122°13'0 0.0
2014-Nov-23 00:23N 37°31' W 122°13'0 0.0
2014-Nov-22 23:33N 37°31' W 122°13'0 0.0
2014-Nov-22 22:25N 37°31' W 122°13'0 0.0
2014-Nov-22 20:29N 37°31' W 122°13'1 0.6
2014-Nov-22 19:33N 37°31' W 122°12'8 8.5
2014-Nov-22 18:33N 37°38' W 122°18'1110.8
2014-Nov-22 17:33N 37°48' W 122°23'2 1.6
2014-Nov-22 16:33N 37°47' W 122°23'6 5.8
2014-Nov-22 15:33N 37°41' W 122°20'7 6.5
2014-Nov-22 14:33N 37°36' W 122°16'5 4.9
2014-Nov-22 13:33N 37°32' W 122°12'2 1.6
2014-Nov-22 12:25N 37°31' W 122°13'0 0.0
2014-Nov-22 11:12N 37°31' W 122°13'0 0.0
2014-Nov-22 10:33N 37°31' W 122°13'0 0.4
2014-Nov-22 09:33N 37°31' W 122°13'0 0.3
2014-Nov-22 08:07N 37°31' W 122°13'0 0.0
2014-Nov-22 07:33N 37°31' W 122°13'0 0.0
2014-Nov-22 06:33N 37°31' W 122°13'0 0.0
2014-Nov-22 03:16N 37°31' W 122°13'0 0.0
2014-Nov-22 02:33N 37°31' W 122°13'0 0.0
2014-Nov-22 01:24N 37°31' W 122°13'1 1.2
2014-Nov-22 00:32N 37°31' W 122°12'1 0.3
2014-Nov-21 21:23N 37°31' W 122°13'0 0.0
2014-Nov-21 20:33N 37°31' W 122°13'0 0.0
2014-Nov-21 18:09N 37°31' W 122°13'0 0.0
2014-Nov-21 17:33N 37°31' W 122°13'1 0.7
2014-Nov-21 16:33N 37°31' W 122°12'1 0.7
2014-Nov-21 15:33N 37°31' W 122°13'3 2.8
2014-Nov-21 14:33N 37°33' W 122°11'0 0.1
2014-Nov-21 13:33N 37°33' W 122°12'5 4.8
2014-Nov-21 12:33N 37°36' W 122°16'8 8.5
2014-Nov-21 11:34N 37°44' W 122°21'7 6.6
2014-Nov-21 10:33N 37°49' W 122°25'8 7.9
2014-Nov-21 09:33N 37°42' W 122°21'7 7.3
2014-Nov-21 08:33N 37°36' W 122°16'6 5.5
2014-Nov-21 07:33N 37°31' W 122°12'1 0.9
2014-Nov-21 06:32N 37°31' W 122°13'0 0.0
2014-Nov-21 05:33N 37°31' W 122°13'0 0.0
2014-Nov-21 04:27N 37°31' W 122°13'0 0.0
2014-Nov-21 03:05N 37°31' W 122°13'0 0.0
2014-Nov-21 02:33N 37°31' W 122°13'0 0.0
2014-Nov-21 01:29N 37°31' W 122°13'0 0.0
2014-Nov-21 00:31N 37°31' W 122°13'0 0.0
2014-Nov-20 23:14N 37°31' W 122°13'3 4.2
2014-Nov-20 22:33N 37°33' W 122°12'3 2.7
2014-Nov-20 21:31N 37°31' W 122°13'0 0.0
2014-Nov-20 20:33N 37°31' W 122°13'0 0.0
2014-Nov-20 19:31N 37°31' W 122°13'0 0.0
2014-Nov-20 18:29N 37°31' W 122°13'0 0.0
2014-Nov-20 17:26N 37°31' W 122°13'0 0.0
2014-Nov-20 16:33N 37°31' W 122°13'0 0.0
2014-Nov-20 15:33N 37°31' W 122°13'0 0.0
2014-Nov-20 14:33N 37°31' W 122°13'3 2.8
2014-Nov-20 13:33N 37°33' W 122°11'7 7.5
2014-Nov-20 12:33N 37°38' W 122°18'9 9.0
2014-Nov-20 11:33N 37°47' W 122°22'1 1.1
2014-Nov-20 10:34N 37°48' W 122°23'8 7.7
2014-Nov-20 09:33N 37°40' W 122°20'7 7.0
2014-Nov-20 08:33N 37°35' W 122°14'4 3.9
2014-Nov-20 07:32N 37°31' W 122°12'0 0.5
2014-Nov-20 06:33N 37°31' W 122°13'0 0.0
2014-Nov-20 05:33N 37°31' W 122°13'0 0.0
2014-Nov-20 04:30N 37°31' W 122°13'2 1.8
2014-Nov-20 03:33N 37°32' W 122°12'8 7.8
2014-Nov-20 02:33N 37°38' W 122°18'1211.5
2014-Nov-20 01:33N 37°48' W 122°24'4 4.0
2014-Nov-20 00:33N 37°45' W 122°22'9 9.3
2014-Nov-19 23:33N 37°36' W 122°17'5 5.1
2014-Nov-19 22:33N 37°33' W 122°12'3 2.8
2014-Nov-19 21:32N 37°31' W 122°13'0 0.0
2014-Nov-19 20:32N 37°31' W 122°13'0 0.2
2014-Nov-19 19:33N 37°30' W 122°13'0 0.0
2014-Nov-19 18:33N 37°30' W 122°13'0 0.0
2014-Nov-19 17:33N 37°30' W 122°13'0 0.0
2014-Nov-19 16:33N 37°30' W 122°13'3 3.5
2014-Nov-19 15:33N 37°34' W 122°13'1111.0
2014-Nov-19 14:33N 37°43' W 122°21'7 6.6
2014-Nov-19 13:33N 37°49' W 122°24'7 6.8
2014-Nov-19 12:33N 37°43' W 122°21'8 7.9
2014-Nov-19 11:33N 37°36' W 122°16'6 5.5
2014-Nov-19 10:33N 37°31' W 122°12'0 0.2
2014-Nov-19 08:33N 37°31' W 122°13'0 0.0
2014-Nov-19 07:33N 37°31' W 122°13'0 0.0
2014-Nov-19 06:33N 37°31' W 122°13'3 2.6
2014-Nov-19 05:33N 37°33' W 122°12'1010.0
2014-Nov-19 04:33N 37°41' W 122°20'  

Dump ship's entire track history